createdAt,value
2023-05-03T00:00:07.506Z,206.27
2023-05-03T00:01:07.528Z,208.11
2023-05-03T00:02:07.578Z,207.11
2023-05-03T00:03:07.601Z,207.03
2023-05-03T00:04:07.579Z,208.14
2023-05-03T00:05:08.253Z,208.92
2023-05-03T00:06:07.683Z,207.38
2023-05-03T00:07:07.618Z,208.63
2023-05-03T00:08:07.615Z,208.33
2023-05-03T00:09:07.643Z,207.53
2023-05-03T00:10:07.655Z,207.30
2023-05-03T00:11:07.665Z,208.46
2023-05-03T00:12:07.663Z,208.22
2023-05-03T00:13:07.681Z,208.24
2023-05-03T00:14:07.685Z,207.44
2023-05-03T00:15:07.714Z,206.91
2023-05-03T00:16:07.715Z,208.28
2023-05-03T00:17:07.832Z,207.24
2023-05-03T00:18:07.774Z,207.79
2023-05-03T00:19:12.609Z,207.25
2023-05-03T00:20:08.843Z,207.33
2023-05-03T00:21:07.743Z,207.32
2023-05-03T00:22:07.752Z,207.58
2023-05-03T00:23:07.730Z,207.82
2023-05-03T00:24:07.709Z,207.64
2023-05-03T00:25:07.709Z,208.46
2023-05-03T00:26:07.730Z,207.78
2023-05-03T00:27:07.687Z,207.53
2023-05-03T00:28:07.685Z,207.97
2023-05-03T00:29:07.688Z,207.93
2023-05-03T00:30:07.676Z,207.72
2023-05-03T00:31:07.732Z,208.64
2023-05-03T00:32:07.670Z,207.87
2023-05-03T00:33:07.705Z,208.09
2023-05-03T00:34:07.667Z,207.99
2023-05-03T00:35:07.632Z,209.05
2023-05-03T00:36:07.645Z,209.38
2023-05-03T00:37:07.635Z,210.10
2023-05-03T00:38:07.619Z,209.19
2023-05-03T00:39:07.609Z,209.20
2023-05-03T00:40:07.632Z,209.11
2023-05-03T00:41:07.593Z,209.08
2023-05-03T00:42:07.612Z,209.70
2023-05-03T00:43:07.633Z,208.50
2023-05-03T00:44:07.596Z,207.81
2023-05-03T00:45:07.575Z,207.09
2023-05-03T00:46:16.742Z,205.87
2023-05-03T00:47:08.604Z,205.95
2023-05-03T00:48:07.584Z,206.02
2023-05-03T00:49:07.538Z,205.89
2023-05-03T00:50:07.551Z,205.70
2023-05-03T00:51:07.557Z,205.93
2023-05-03T00:52:07.608Z,204.31
2023-05-03T00:53:07.528Z,204.94
2023-05-03T00:54:07.501Z,204.06
2023-05-03T00:55:07.497Z,203.49
2023-05-03T00:56:07.526Z,203.37
2023-05-03T00:57:07.494Z,202.86
2023-05-03T00:58:07.479Z,203.49
2023-05-03T00:59:07.485Z,203.39
2023-05-03T01:00:07.485Z,203.69
2023-05-03T01:01:07.462Z,203.05
2023-05-03T01:02:07.494Z,203.01
2023-05-03T01:03:07.526Z,202.02
2023-05-03T01:04:07.515Z,202.62
2023-05-03T01:05:07.460Z,202.45
2023-05-03T01:06:07.480Z,202.87
2023-05-03T01:07:07.431Z,202.93
2023-05-03T01:08:07.468Z,203.16
2023-05-03T01:09:07.401Z,202.81
2023-05-03T01:10:07.398Z,203.32
2023-05-03T01:11:07.397Z,202.37
2023-05-03T01:12:07.398Z,201.84
2023-05-03T01:13:07.391Z,199.58
2023-05-03T01:14:07.396Z,201.19
2023-05-03T01:15:07.385Z,200.16
2023-05-03T01:16:07.403Z,201.02
2023-05-03T01:17:07.360Z,201.40
2023-05-03T01:18:07.385Z,199.91
2023-05-03T01:19:07.346Z,200.61
2023-05-03T01:20:07.338Z,198.97
2023-05-03T01:21:07.359Z,198.81
2023-05-03T01:22:07.368Z,199.40
2023-05-03T01:23:07.395Z,197.91
2023-05-03T01:24:07.423Z,198.15
2023-05-03T01:25:07.419Z,198.73
2023-05-03T01:26:07.439Z,198.52
2023-05-03T01:27:07.458Z,199.01
2023-05-03T01:28:07.486Z,199.38
2023-05-03T01:29:07.488Z,198.66
2023-05-03T01:30:07.508Z,199.51
2023-05-03T01:31:07.577Z,199.55
2023-05-03T01:32:07.577Z,198.68
2023-05-03T01:33:07.680Z,199.82
2023-05-03T01:34:07.571Z,198.84
2023-05-03T01:35:07.586Z,199.35
2023-05-03T01:36:07.662Z,198.04
2023-05-03T01:37:07.604Z,198.40
2023-05-03T01:38:07.649Z,200.01
2023-05-03T01:39:07.669Z,199.31
2023-05-03T01:40:07.694Z,201.75
2023-05-03T01:41:07.694Z,201.12
2023-05-03T01:42:07.712Z,200.22
2023-05-03T01:43:07.709Z,200.51
2023-05-03T01:44:07.721Z,201.50
2023-05-03T01:45:07.748Z,200.67
2023-05-03T01:46:07.824Z,200.90
2023-05-03T01:47:07.768Z,202.33
2023-05-03T01:48:07.847Z,200.60
2023-05-03T01:49:07.821Z,199.93
2023-05-03T01:50:07.840Z,200.56
2023-05-03T01:51:07.846Z,199.51
2023-05-03T01:52:07.858Z,200.42
2023-05-03T01:53:07.895Z,199.89
2023-05-03T01:54:07.893Z,201.34
2023-05-03T01:55:07.909Z,200.92
2023-05-03T01:56:07.907Z,201.50
2023-05-03T01:57:07.921Z,201.76
2023-05-03T01:58:07.971Z,201.20
2023-05-03T01:59:07.948Z,200.56
2023-05-03T02:00:07.966Z,200.73
2023-05-03T02:01:08.086Z,201.73
2023-05-03T02:02:07.989Z,200.63
2023-05-03T02:03:08.068Z,201.57
2023-05-03T02:04:08.085Z,200.30
2023-05-03T02:05:08.053Z,202.34
2023-05-03T02:06:08.065Z,201.26
2023-05-03T02:07:08.068Z,200.05
2023-05-03T02:08:08.106Z,200.63
2023-05-03T02:09:08.093Z,200.26
2023-05-03T02:10:08.117Z,200.79
2023-05-03T02:11:08.129Z,200.05
2023-05-03T02:12:08.157Z,200.34
2023-05-03T02:13:08.165Z,199.50
2023-05-03T02:14:08.177Z,198.86
2023-05-03T02:15:08.178Z,200.05
2023-05-03T02:16:08.204Z,198.95
2023-05-03T02:17:08.509Z,199.83
2023-05-03T02:18:08.281Z,200.90
2023-05-03T02:19:08.244Z,200.27
2023-05-03T02:20:08.258Z,199.42
2023-05-03T02:21:08.297Z,200.05
2023-05-03T02:22:08.280Z,201.57
2023-05-03T02:23:08.313Z,200.00
2023-05-03T02:24:08.315Z,199.82
2023-05-03T02:25:08.330Z,199.51
2023-05-03T02:26:08.373Z,200.59
2023-05-03T02:27:08.359Z,201.02
2023-05-03T02:28:08.373Z,199.40
2023-05-03T02:29:08.389Z,199.74
2023-05-03T02:30:08.380Z,201.04
2023-05-03T02:31:08.467Z,200.10
2023-05-03T02:32:08.424Z,200.49
2023-05-03T02:33:08.489Z,200.38
2023-05-03T02:34:08.456Z,200.49
2023-05-03T02:35:08.453Z,201.24
2023-05-03T02:36:08.473Z,200.63
2023-05-03T02:37:08.503Z,200.84
2023-05-03T02:38:08.535Z,200.79
2023-05-03T02:39:08.540Z,201.62
2023-05-03T02:40:08.555Z,201.37
2023-05-03T02:41:08.562Z,202.21
2023-05-03T02:42:08.600Z,201.55
2023-05-03T02:43:08.615Z,200.09
2023-05-03T02:44:08.626Z,202.36
2023-05-03T02:45:08.653Z,201.32
2023-05-03T02:46:08.720Z,201.22
2023-05-03T02:47:08.659Z,200.99
2023-05-03T02:48:08.786Z,201.89
2023-05-03T02:49:08.708Z,201.82
2023-05-03T02:50:08.740Z,201.65
2023-05-03T02:51:08.794Z,202.78
2023-05-03T02:52:08.757Z,202.88
2023-05-03T02:53:08.773Z,203.65
2023-05-03T02:54:08.801Z,201.76
2023-05-03T02:55:08.813Z,204.14
2023-05-03T02:56:08.818Z,202.50
2023-05-03T02:57:08.825Z,203.20
2023-05-03T02:58:08.846Z,203.58
2023-05-03T02:59:08.859Z,203.37
2023-05-03T03:00:08.890Z,203.20
2023-05-03T03:01:08.937Z,203.44
2023-05-03T03:02:08.953Z,203.61
2023-05-03T03:03:09.045Z,204.60
2023-05-03T03:04:09.263Z,202.94
2023-05-03T03:05:08.969Z,203.40
2023-05-03T03:06:09.120Z,204.41
2023-05-03T03:07:09.004Z,204.22
2023-05-03T03:08:09.025Z,204.03
2023-05-03T03:09:09.031Z,203.40
2023-05-03T03:10:09.060Z,203.06
2023-05-03T03:11:09.073Z,203.44
2023-05-03T03:12:09.078Z,204.18
2023-05-03T03:13:09.100Z,202.64
2023-05-03T03:14:09.097Z,201.77
2023-05-03T03:15:09.115Z,201.68
2023-05-03T03:16:09.177Z,202.92
2023-05-03T03:17:09.182Z,202.54
2023-05-03T03:18:09.268Z,202.14
2023-05-03T03:19:09.178Z,202.90
2023-05-03T03:20:09.192Z,202.09
2023-05-03T03:21:09.198Z,202.65
2023-05-03T03:22:09.229Z,202.59
2023-05-03T03:23:09.220Z,202.77
2023-05-03T03:24:09.269Z,202.57
2023-05-03T03:25:09.260Z,202.05
2023-05-03T03:26:09.265Z,201.92
2023-05-03T03:27:09.280Z,200.50
2023-05-03T03:28:09.314Z,201.94
2023-05-03T03:29:09.308Z,202.71
2023-05-03T03:30:09.389Z,201.69
2023-05-03T03:31:09.459Z,201.78
2023-05-03T03:32:09.366Z,203.64
2023-05-03T03:33:09.421Z,202.19
2023-05-03T03:34:09.406Z,202.19
2023-05-03T03:35:09.404Z,201.72
2023-05-03T03:36:09.420Z,200.95
2023-05-03T03:37:09.462Z,200.58
2023-05-03T03:38:09.478Z,200.75
2023-05-03T03:39:09.472Z,201.89
2023-05-03T03:40:09.490Z,200.15
2023-05-03T03:41:09.538Z,200.09
2023-05-03T03:42:09.599Z,199.21
2023-05-03T03:43:09.642Z,199.12
2023-05-03T03:44:09.657Z,199.48
2023-05-03T03:45:09.689Z,200.78
2023-05-03T03:46:09.625Z,200.80
2023-05-03T03:47:09.718Z,199.83
2023-05-03T03:48:09.779Z,200.66
2023-05-03T03:49:09.696Z,200.73
2023-05-03T03:50:09.719Z,199.73
2023-05-03T03:51:09.745Z,201.31
2023-05-03T03:52:09.704Z,200.23
2023-05-03T03:53:09.797Z,200.98
2023-05-03T03:54:09.792Z,200.15
2023-05-03T03:55:09.769Z,201.89
2023-05-03T03:56:09.809Z,198.80
2023-05-03T03:57:09.817Z,199.76
2023-05-03T03:58:09.871Z,199.13
2023-05-03T03:59:09.854Z,199.86
2023-05-03T04:00:09.857Z,199.00
2023-05-03T04:01:09.895Z,198.28
2023-05-03T04:02:09.974Z,198.66
2023-05-03T04:03:10.071Z,198.10
2023-05-03T04:04:10.156Z,199.48
2023-05-03T04:05:09.961Z,197.89
2023-05-03T04:06:10.006Z,197.54
2023-05-03T04:07:10.053Z,198.63
2023-05-03T04:08:09.990Z,196.71
2023-05-03T04:09:10.007Z,197.54
2023-05-03T04:10:10.099Z,197.51
2023-05-03T04:11:10.056Z,196.86
2023-05-03T04:12:10.070Z,195.55
2023-05-03T04:13:10.076Z,195.97
2023-05-03T04:14:10.119Z,196.27
2023-05-03T04:15:10.108Z,196.43
2023-05-03T04:16:10.143Z,195.82
2023-05-03T04:17:10.254Z,195.00
2023-05-03T04:18:10.203Z,195.03
2023-05-03T04:19:10.178Z,196.50
2023-05-03T04:20:10.212Z,196.53
2023-05-03T04:21:10.218Z,196.67
2023-05-03T04:22:10.252Z,194.95
2023-05-03T04:23:10.413Z,196.38
2023-05-03T04:24:10.290Z,196.58
2023-05-03T04:25:10.300Z,196.44
2023-05-03T04:26:17.228Z,194.89
2023-05-03T04:27:11.317Z,195.08
2023-05-03T04:28:10.308Z,195.25
2023-05-03T04:29:10.304Z,195.63
2023-05-03T04:30:10.298Z,195.71
2023-05-03T04:31:10.345Z,197.29
2023-05-03T04:32:10.287Z,195.86
2023-05-03T04:33:10.320Z,197.60
2023-05-03T04:34:10.282Z,197.08
2023-05-03T04:35:10.306Z,197.25
2023-05-03T04:36:10.260Z,197.12
2023-05-03T04:37:10.250Z,197.35
2023-05-03T04:38:10.311Z,197.98
2023-05-03T04:39:10.237Z,198.41
2023-05-03T04:40:10.222Z,199.21
2023-05-03T04:41:10.294Z,198.58
2023-05-03T04:42:10.284Z,199.07
2023-05-03T04:43:10.248Z,199.51
2023-05-03T04:44:10.194Z,198.45
2023-05-03T04:45:10.191Z,197.54
2023-05-03T04:46:10.243Z,197.50
2023-05-03T04:47:10.188Z,196.45
2023-05-03T04:48:10.227Z,197.57
2023-05-03T04:49:10.159Z,197.87
2023-05-03T04:50:10.167Z,198.69
2023-05-03T04:51:10.160Z,198.39
2023-05-03T04:52:10.160Z,199.46
2023-05-03T04:53:10.147Z,199.68
2023-05-03T04:54:10.156Z,201.06
2023-05-03T04:55:10.191Z,201.53
2023-05-03T04:56:10.185Z,202.51
2023-05-03T04:57:10.231Z,203.42
2023-05-03T04:58:10.257Z,203.33
2023-05-03T04:59:10.271Z,203.31
2023-05-03T05:00:10.295Z,204.20
2023-05-03T05:01:10.328Z,204.81
2023-05-03T05:02:10.375Z,204.20
2023-05-03T05:03:10.418Z,204.16
2023-05-03T05:04:10.521Z,204.63
2023-05-03T05:05:10.385Z,205.85
2023-05-03T05:06:10.445Z,204.97
2023-05-03T05:07:10.426Z,204.22
2023-05-03T05:08:10.434Z,204.93
2023-05-03T05:09:10.539Z,205.33
2023-05-03T05:10:10.449Z,204.82
2023-05-03T05:11:10.637Z,204.28
2023-05-03T05:12:10.582Z,204.20
2023-05-03T05:13:10.583Z,203.35
2023-05-03T05:14:10.552Z,205.04
2023-05-03T05:15:10.499Z,204.49
2023-05-03T05:16:10.564Z,205.43
2023-05-03T05:17:10.569Z,204.69
2023-05-03T05:18:10.579Z,204.59
2023-05-03T05:19:10.550Z,204.37
2023-05-03T05:20:10.589Z,203.64
2023-05-03T05:21:10.571Z,205.71
2023-05-03T05:22:10.565Z,203.85
2023-05-03T05:23:10.752Z,203.39
2023-05-03T05:24:10.610Z,199.20
2023-05-03T05:25:10.606Z,194.99
2023-05-03T05:26:10.640Z,196.56
2023-05-03T05:27:10.626Z,195.09
2023-05-03T05:28:10.738Z,184.91
2023-05-03T05:29:10.782Z,175.89
2023-05-03T05:30:10.674Z,172.93
2023-05-03T05:31:10.846Z,160.30
2023-05-03T05:32:10.754Z,155.93
2023-05-03T05:33:10.986Z,147.58
2023-05-03T05:34:10.935Z,145.82
2023-05-03T05:35:10.909Z,141.05
2023-05-03T05:36:10.863Z,142.21
2023-05-03T05:37:10.878Z,143.47
2023-05-03T05:38:10.902Z,144.03
2023-05-03T05:39:10.902Z,142.96
2023-05-03T05:40:10.912Z,143.00
2023-05-03T05:41:10.977Z,144.03
2023-05-03T05:42:11.010Z,144.59
2023-05-03T05:43:11.086Z,146.71
2023-05-03T05:44:11.105Z,143.27
2023-05-03T05:45:11.164Z,142.10
2023-05-03T05:46:11.378Z,146.85
2023-05-03T05:47:11.493Z,152.31
2023-05-03T05:48:11.443Z,162.26
2023-05-03T05:49:11.395Z,166.38
2023-05-03T05:50:17.694Z,170.25
2023-05-03T05:51:12.418Z,170.75
2023-05-03T05:52:11.412Z,174.91
2023-05-03T05:53:11.397Z,183.46
2023-05-03T05:54:11.404Z,198.52
2023-05-03T05:55:11.387Z,240.40
2023-05-03T05:56:11.375Z,279.59
2023-05-03T05:57:11.404Z,260.90
2023-05-03T05:58:11.385Z,250.11
2023-05-03T05:59:11.357Z,249.84
2023-05-03T06:00:11.356Z,248.20
2023-05-03T06:01:11.338Z,254.11
2023-05-03T06:02:11.373Z,247.95
2023-05-03T06:03:11.432Z,249.62
2023-05-03T06:04:11.330Z,250.22
2023-05-03T06:05:11.383Z,250.00
2023-05-03T06:06:11.337Z,245.43
2023-05-03T06:07:11.314Z,245.98
2023-05-03T06:08:11.307Z,236.09
2023-05-03T06:09:23.294Z,252.39
2023-05-03T06:10:12.365Z,246.11
2023-05-03T06:11:11.337Z,238.70
2023-05-03T06:12:11.356Z,235.27
2023-05-03T06:13:11.370Z,225.70
2023-05-03T06:14:11.326Z,213.88
2023-05-03T06:15:11.348Z,203.58
2023-05-03T06:16:11.361Z,203.42
2023-05-03T06:17:11.409Z,201.18
2023-05-03T06:18:11.433Z,203.14
2023-05-03T06:19:11.295Z,206.46
2023-05-03T06:20:11.368Z,200.18
2023-05-03T06:21:11.432Z,197.38
2023-05-03T06:22:11.354Z,189.10
2023-05-03T06:23:11.438Z,181.72
2023-05-03T06:24:11.275Z,173.73
2023-05-03T06:25:11.245Z,164.49
2023-05-03T06:26:11.265Z,175.61
2023-05-03T06:27:11.250Z,170.87
2023-05-03T06:28:11.254Z,169.71
2023-05-03T06:29:11.220Z,158.31
2023-05-03T06:30:11.225Z,152.43
2023-05-03T06:31:11.275Z,149.16
2023-05-03T06:32:11.214Z,133.68
2023-05-03T06:33:11.627Z,121.71
2023-05-03T06:34:11.280Z,111.03
2023-05-03T06:35:11.268Z,118.42
2023-05-03T06:36:11.249Z,134.13
2023-05-03T06:37:11.474Z,143.80
2023-05-03T06:38:11.332Z,152.86
2023-05-03T06:39:11.404Z,157.65
2023-05-03T06:40:11.431Z,162.40
2023-05-03T06:41:11.495Z,167.87
2023-05-03T06:42:11.987Z,203.02
2023-05-03T06:43:11.598Z,231.46
2023-05-03T06:44:11.578Z,207.46
2023-05-03T06:45:11.503Z,203.09
2023-05-03T06:46:11.625Z,205.92
2023-05-03T06:47:11.998Z,205.13
2023-05-03T06:48:12.048Z,205.90
2023-05-03T06:49:11.678Z,209.50
2023-05-03T06:50:11.718Z,204.68
2023-05-03T06:51:11.736Z,208.46
2023-05-03T06:52:12.021Z,210.98
2023-05-03T06:53:11.754Z,211.99
2023-05-03T06:54:11.773Z,215.78
2023-05-03T06:55:11.769Z,221.53
2023-05-03T06:56:11.784Z,221.36
2023-05-03T06:57:11.794Z,220.81
2023-05-03T06:58:11.804Z,222.62
2023-05-03T06:59:11.865Z,225.15
2023-05-03T07:00:11.993Z,226.80
2023-05-03T07:01:11.999Z,225.85
2023-05-03T07:02:12.058Z,228.62
2023-05-03T07:03:12.152Z,229.45
2023-05-03T07:04:12.287Z,231.23
2023-05-03T07:05:12.148Z,232.07
2023-05-03T07:06:12.184Z,221.30
2023-05-03T07:07:12.266Z,211.66
2023-05-03T07:08:12.292Z,180.24
2023-05-03T07:09:12.305Z,184.70
2023-05-03T07:10:12.376Z,203.07
2023-05-03T07:11:12.455Z,217.62
2023-05-03T07:12:12.510Z,224.42
2023-05-03T07:13:12.601Z,222.20
2023-05-03T07:14:12.643Z,222.39
2023-05-03T07:15:12.682Z,222.03
2023-05-03T07:16:12.732Z,210.73
2023-05-03T07:17:12.794Z,212.42
2023-05-03T07:18:12.905Z,216.47
2023-05-03T07:19:12.844Z,217.92
2023-05-03T07:20:12.871Z,219.19
2023-05-03T07:21:12.886Z,220.04
2023-05-03T07:22:12.896Z,219.60
2023-05-03T07:23:12.938Z,215.23
2023-05-03T07:24:12.957Z,215.84
2023-05-03T07:25:12.975Z,209.05
2023-05-03T07:26:12.948Z,205.04
2023-05-03T07:27:12.983Z,213.56
2023-05-03T07:28:13.003Z,212.62
2023-05-03T07:29:12.976Z,204.60
2023-05-03T07:30:13.013Z,175.57
2023-05-03T07:31:13.037Z,136.23
2023-05-03T07:32:13.087Z,110.87
2023-05-03T07:33:13.267Z,100.67
2023-05-03T07:34:13.192Z,86.14
2023-05-03T07:35:13.219Z,57.69
2023-05-03T07:36:13.238Z,58.93
2023-05-03T07:37:13.217Z,52.08
2023-05-03T07:38:13.496Z,45.83
2023-05-03T07:39:13.261Z,49.97
2023-05-03T07:40:13.268Z,53.17
2023-05-03T07:41:13.268Z,54.27
2023-05-03T07:42:13.275Z,55.88
2023-05-03T07:43:13.317Z,48.64
2023-05-03T07:44:13.327Z,43.85
2023-05-03T07:45:13.329Z,50.96
2023-05-03T07:46:13.395Z,51.80
2023-05-03T07:47:13.310Z,28.07
2023-05-03T07:48:13.381Z,10.99
2023-05-03T07:49:13.379Z,25.00
2023-05-03T07:50:13.415Z,36.36
2023-05-03T07:51:13.450Z,41.85
2023-05-03T07:52:13.474Z,45.47
2023-05-03T07:53:13.488Z,42.71
2023-05-03T07:54:13.537Z,36.10
2023-05-03T07:55:13.560Z,40.51
2023-05-03T07:56:13.584Z,55.56
2023-05-03T07:57:13.590Z,78.17
2023-05-03T07:58:13.600Z,103.23
2023-05-03T07:59:13.597Z,97.33
2023-05-03T08:00:13.617Z,71.60
2023-05-03T08:01:13.619Z,75.67
2023-05-03T08:02:13.740Z,77.38
2023-05-03T08:03:13.934Z,66.53
2023-05-03T08:04:13.728Z,58.85
2023-05-03T08:05:13.805Z,51.38
2023-05-03T08:06:13.652Z,43.53
2023-05-03T08:07:13.626Z,31.30
2023-05-03T08:08:13.636Z,34.89
2023-05-03T08:09:13.628Z,34.18
2023-05-03T08:10:13.656Z,28.04
2023-05-03T08:11:13.642Z,38.02
2023-05-03T08:12:13.638Z,38.84
2023-05-03T08:13:13.629Z,40.51
2023-05-03T08:14:13.618Z,47.76
2023-05-03T08:15:13.628Z,42.95
2023-05-03T08:16:13.714Z,25.27
2023-05-03T08:17:13.621Z,29.22
2023-05-03T08:18:13.654Z,27.21
2023-05-03T08:19:13.626Z,33.47
2023-05-03T08:20:13.708Z,29.33
2023-05-03T08:21:13.665Z,33.68
2023-05-03T08:22:13.635Z,23.57
2023-05-03T08:23:14.014Z,23.28
2023-05-03T08:24:16.059Z,13.11
2023-05-03T08:25:13.810Z,9.69
2023-05-03T08:26:13.874Z,11.14
2023-05-03T08:27:13.908Z,14.02
2023-05-03T08:28:13.920Z,23.11
2023-05-03T08:29:13.915Z,24.69
2023-05-03T08:30:13.944Z,26.08
2023-05-03T08:31:14.002Z,26.81
2023-05-03T08:32:13.935Z,24.76
2023-05-03T08:33:14.096Z,26.25
2023-05-03T08:34:14.058Z,27.28
2023-05-03T08:35:14.051Z,25.98
2023-05-03T08:36:13.985Z,29.52
2023-05-03T08:37:13.997Z,37.61
2023-05-03T08:38:14.020Z,38.20
2023-05-03T08:39:14.013Z,44.37
2023-05-03T08:40:13.974Z,42.37
2023-05-03T08:41:13.969Z,36.23
2023-05-03T08:42:13.979Z,37.68
2023-05-03T08:43:13.969Z,36.29
2023-05-03T08:44:13.963Z,35.49
2023-05-03T08:45:13.982Z,38.83
2023-05-03T08:46:14.099Z,36.70
2023-05-03T08:47:14.012Z,40.54
2023-05-03T08:48:14.088Z,33.24
2023-05-03T08:49:14.028Z,33.67
2023-05-03T08:50:14.047Z,43.64
2023-05-03T08:51:14.075Z,38.83
2023-05-03T08:52:14.051Z,40.93
2023-05-03T08:53:14.504Z,37.36
2023-05-03T08:54:14.046Z,33.82
2023-05-03T08:55:14.034Z,32.66
2023-05-03T08:56:14.040Z,30.50
2023-05-03T08:57:14.029Z,29.74
2023-05-03T08:58:14.049Z,26.85
2023-05-03T08:59:14.040Z,29.13
2023-05-03T09:00:14.053Z,32.51
2023-05-03T09:01:14.070Z,26.40
2023-05-03T09:02:14.121Z,26.35
2023-05-03T09:03:14.201Z,27.21
2023-05-03T09:04:14.198Z,25.47
2023-05-03T09:05:14.116Z,26.28
2023-05-03T09:06:14.113Z,25.88
2023-05-03T09:07:14.136Z,31.77
2023-05-03T09:08:14.121Z,43.02
2023-05-03T09:09:14.148Z,42.73
2023-05-03T09:10:14.146Z,43.21
2023-05-03T09:11:14.134Z,47.47
2023-05-03T09:12:14.191Z,46.42
2023-05-03T09:13:14.217Z,41.65
2023-05-03T09:14:14.225Z,34.42
2023-05-03T09:15:14.230Z,43.07
2023-05-03T09:16:14.305Z,36.05
2023-05-03T09:17:14.271Z,35.98
2023-05-03T09:18:14.311Z,32.70
2023-05-03T09:19:14.324Z,37.94
2023-05-03T09:20:14.253Z,37.99
2023-05-03T09:21:14.270Z,36.16
2023-05-03T09:22:14.266Z,35.87
2023-05-03T09:23:14.281Z,41.66
2023-05-03T09:24:14.289Z,53.11
2023-05-03T09:25:14.307Z,47.81
2023-05-03T09:26:14.344Z,53.29
2023-05-03T09:27:14.398Z,56.39
2023-05-03T09:28:14.441Z,51.44
2023-05-03T09:29:14.537Z,50.60
2023-05-03T09:30:14.608Z,61.70
2023-05-03T09:31:14.646Z,48.86
2023-05-03T09:32:14.792Z,45.93
2023-05-03T09:33:14.759Z,46.87
2023-05-03T09:34:14.826Z,53.41
2023-05-03T09:35:14.886Z,78.21
2023-05-03T09:36:14.923Z,93.21
2023-05-03T09:37:14.986Z,104.04
2023-05-03T09:38:15.039Z,110.51
2023-05-03T09:39:15.042Z,138.21
2023-05-03T09:40:15.112Z,124.09
2023-05-03T09:41:15.116Z,111.30
2023-05-03T09:42:15.142Z,203.36
2023-05-03T09:43:15.971Z,197.72
2023-05-03T09:44:15.165Z,156.28
2023-05-03T09:45:15.151Z,177.00
2023-05-03T09:46:15.195Z,220.37
2023-05-03T09:47:15.169Z,242.50
2023-05-03T09:48:15.196Z,200.01
2023-05-03T09:49:16.864Z,162.91
2023-05-03T09:50:15.222Z,159.01
2023-05-03T09:51:15.217Z,158.47
2023-05-03T09:52:15.195Z,163.67
2023-05-03T09:53:15.207Z,158.43
2023-05-03T09:54:15.202Z,158.94
2023-05-03T09:55:15.175Z,161.41
2023-05-03T09:56:15.211Z,166.89
2023-05-03T09:57:15.168Z,166.27
2023-05-03T09:58:15.164Z,170.91
2023-05-03T09:59:15.170Z,178.95
2023-05-03T10:00:15.148Z,175.68
2023-05-03T10:01:15.217Z,180.91
2023-05-03T10:02:15.152Z,180.37
2023-05-03T10:03:15.138Z,178.93
2023-05-03T10:04:15.210Z,182.70
2023-05-03T10:05:15.127Z,182.98
2023-05-03T10:06:15.134Z,183.60
2023-05-03T10:07:15.197Z,179.66
2023-05-03T10:08:15.112Z,178.55
2023-05-03T10:09:15.092Z,181.78
2023-05-03T10:10:15.091Z,181.51
2023-05-03T10:11:15.074Z,178.73
2023-05-03T10:12:15.067Z,178.77
2023-05-03T10:13:15.096Z,184.12
2023-05-03T10:14:15.076Z,185.11
2023-05-03T10:15:15.050Z,179.64
2023-05-03T10:16:15.050Z,178.62
2023-05-03T10:17:15.041Z,174.84
2023-05-03T10:18:15.053Z,175.32
2023-05-03T10:19:15.028Z,178.97
2023-05-03T10:20:15.019Z,183.20
2023-05-03T10:21:14.999Z,170.53
2023-05-03T10:22:15.011Z,168.28
2023-05-03T10:23:15.067Z,173.92
2023-05-03T10:24:14.992Z,185.67
2023-05-03T10:25:16.136Z,191.03
2023-05-03T10:26:14.979Z,196.35
2023-05-03T10:27:14.965Z,200.05
2023-05-03T10:28:14.942Z,202.50
2023-05-03T10:29:14.938Z,201.92
2023-05-03T10:30:14.945Z,201.73
2023-05-03T10:31:14.960Z,201.71
2023-05-03T10:32:14.912Z,202.29
2023-05-03T10:33:14.973Z,201.50
2023-05-03T10:34:14.932Z,201.42
2023-05-03T10:35:14.901Z,198.58
2023-05-03T10:36:14.895Z,195.36
2023-05-03T10:37:14.895Z,193.37
2023-05-03T10:38:14.883Z,191.83
2023-05-03T10:39:14.876Z,189.16
2023-05-03T10:40:14.859Z,187.24
2023-05-03T10:41:14.844Z,187.27
2023-05-03T10:42:14.853Z,184.58
2023-05-03T10:43:14.846Z,180.95
2023-05-03T10:44:14.840Z,180.49
2023-05-03T10:45:14.837Z,179.33
2023-05-03T10:46:14.868Z,175.91
2023-05-03T10:47:14.811Z,173.05
2023-05-03T10:48:14.877Z,171.31
2023-05-03T10:49:14.935Z,157.47
2023-05-03T10:50:15.010Z,127.66
2023-05-03T10:51:15.040Z,138.70
2023-05-03T10:52:15.101Z,125.02
2023-05-03T10:53:15.154Z,133.23
2023-05-03T10:54:15.242Z,128.47
2023-05-03T10:55:15.279Z,123.81
2023-05-03T10:56:15.340Z,136.85
2023-05-03T10:57:15.392Z,150.27
2023-05-03T10:58:15.436Z,142.55
2023-05-03T10:59:15.503Z,154.39
2023-05-03T11:00:15.570Z,152.74
2023-05-03T11:01:15.671Z,152.01
2023-05-03T11:02:15.668Z,154.47
2023-05-03T11:03:15.722Z,160.88
2023-05-03T11:04:15.855Z,163.88
2023-05-03T11:05:15.843Z,165.11
2023-05-03T11:06:15.909Z,165.86
2023-05-03T11:07:15.928Z,167.07
2023-05-03T11:08:15.978Z,168.06
2023-05-03T11:09:16.018Z,170.10
2023-05-03T11:10:16.056Z,170.42
2023-05-03T11:11:16.108Z,170.80
2023-05-03T11:12:16.149Z,172.18
2023-05-03T11:13:16.283Z,174.89
2023-05-03T11:14:16.237Z,174.76
2023-05-03T11:15:16.245Z,175.94
2023-05-03T11:16:16.302Z,177.35
2023-05-03T11:17:16.329Z,177.67
2023-05-03T11:18:16.333Z,178.05
2023-05-03T11:19:16.358Z,179.08
2023-05-03T11:20:16.408Z,180.49
2023-05-03T11:21:16.434Z,181.22
2023-05-03T11:22:16.462Z,182.48
2023-05-03T11:23:16.493Z,183.31
2023-05-03T11:24:16.519Z,184.03
2023-05-03T11:25:16.568Z,184.13
2023-05-03T11:26:16.590Z,185.03
2023-05-03T11:27:16.617Z,185.31
2023-05-03T11:28:16.655Z,186.05
2023-05-03T11:29:16.676Z,185.92
2023-05-03T11:30:16.702Z,186.91
2023-05-03T11:31:16.767Z,187.58
2023-05-03T11:32:16.914Z,186.60
2023-05-03T11:33:16.811Z,187.24
2023-05-03T11:34:16.834Z,188.04
2023-05-03T11:35:16.880Z,187.85
2023-05-03T11:36:16.901Z,189.33
2023-05-03T11:37:16.920Z,188.92
2023-05-03T11:38:16.965Z,188.52
2023-05-03T11:39:18.779Z,189.57
2023-05-03T11:40:17.196Z,190.03
2023-05-03T11:41:17.191Z,190.70
2023-05-03T11:42:17.222Z,190.49
2023-05-03T11:43:17.355Z,190.47
2023-05-03T11:44:18.428Z,191.13
2023-05-03T11:45:17.313Z,190.27
2023-05-03T11:46:17.366Z,190.11
2023-05-03T11:47:17.576Z,190.07
2023-05-03T11:48:17.457Z,189.83
2023-05-03T11:49:17.442Z,190.44
2023-05-03T11:50:17.488Z,190.11
2023-05-03T11:51:17.499Z,189.48
2023-05-03T11:52:17.560Z,190.15
2023-05-03T11:53:17.565Z,189.75
2023-05-03T11:54:25.393Z,189.40
2023-05-03T11:55:18.592Z,189.46
2023-05-03T11:56:17.595Z,189.57
2023-05-03T11:57:17.586Z,189.61
2023-05-03T11:58:17.610Z,189.74
2023-05-03T11:59:17.677Z,189.56
2023-05-03T12:00:17.699Z,190.39
2023-05-03T12:01:17.608Z,190.17
2023-05-03T12:02:17.611Z,189.46
2023-05-03T12:03:17.931Z,189.99
2023-05-03T12:04:17.717Z,189.59
2023-05-03T12:05:18.323Z,189.58
2023-05-03T12:06:17.876Z,188.75
2023-05-03T12:07:19.857Z,188.90
2023-05-03T12:08:18.491Z,188.93
2023-05-03T12:09:18.639Z,188.95
2023-05-03T12:10:21.644Z,188.96
2023-05-03T12:11:20.797Z,188.97
2023-05-03T12:12:20.167Z,188.98
2023-05-03T12:13:20.103Z,189.00
2023-05-03T12:14:17.566Z,189.17
2023-05-03T12:15:17.917Z,189.13
2023-05-03T12:16:18.569Z,189.43
2023-05-03T12:17:18.941Z,189.59
2023-05-03T12:18:19.024Z,188.82
2023-05-03T12:19:18.007Z,189.07
2023-05-03T12:21:03.175Z,188.15
2023-05-03T12:22:25.614Z,188.21
2023-05-03T12:23:18.571Z,188.26
2023-05-03T12:24:20.121Z,188.32
2023-05-03T12:25:20.187Z,188.47
2023-05-03T12:26:18.865Z,188.22
2023-05-03T12:27:19.351Z,188.15
2023-05-03T12:28:20.804Z,188.43
2023-05-03T12:30:18.150Z,187.33
2023-05-03T12:31:18.206Z,187.30
2023-05-03T12:32:17.470Z,186.72
2023-05-03T12:33:17.664Z,187.51
2023-05-03T12:34:31.668Z,186.13